首页
METAR-TAF:

METAR-TAF

机场 :

Chisholm-Hibbing Airport

Hibbing, 明尼蘇達州, 美国

纬度: 47-23-12N, 经度: 092-50-20W, 海拔: 412米

当前天气观测

该预报发布于1小时和6分钟前的06:53 UTC
风速3节,风向西转西北
温度 -22°C
湿度 84%
气压 1012 hPa
能見度: 11.3公里
少量云层高于9000英尺
多云层高于11000英尺

METAR: KHIB 100653Z AUTO 29003KT 7SM FEW090 BKN110 M22/M24 A2989 RMK AO2 SLP161 T12171244

时间: 01:59 (07:59 UTC)

预报

该预报发布于2小时和28分钟前的05:31 UTC
预报有效从10日的 06点(UTC)到 11日的 06点(UTC)
风速7节,风向西北
能見度: 10公里
散云层高于1500英尺
从 10日的 1000点(UTC)
风速6节,风向西北
能見度: 10公里
多云层高于1500英尺
从 10日的 2000点(UTC)
风速8节,风向西
能見度: 10公里
少量云层高于25000英尺

TAF: KHIB 100531Z 1006/1106 31007KT P6SM SCT015 FM101000 31006KT P6SM BKN015 FM102000 27008KT P6SM FEW250

超过4000个机场的气象观测和天气预报(METAR&TAF报告)。

可查询的气象台以黄色和红色小点在地图上表示。

将鼠标移到小点上方,可查看气象台名称。

然后点击查看天气观测和预报。

如需切换地图:点击带黑十字的绿色按钮放大地图;点击带横线的绿色按钮缩小地图;或者点击绿色箭头查看邻近地区的地图。


METAR-TAF: